Time;durP1;ratioP1;P1;durP2;ratioP2;P2;SDS_P1;SDS_P2;PMS_P1;PMS_P2;Temp;Humidity;BMP_temperature;BMP_pressure;BME280_temperature;BME280_humidity;BME280_pressure;Samples;Min_cycle;Max_cycle;Signal;HPM_P1;HPM_P2
2023/11/12 00:02:23;;;;;;;2.80;1.77;;;;;;;;;;786624;178;918754;-68
2023/11/12 00:04:49;;;;;;;2.50;1.60;;;;;;;;;;778467;178;806174;-68
2023/11/12 00:07:15;;;;;;;3.30;2.20;;;;;;;;;;775595;179;929268;-68
2023/11/12 00:09:41;;;;;;;2.33;1.50;;;;;;;;;;784020;178;816581;-68
2023/11/12 00:12:07;;;;;;;2.60;1.67;;;;;;;;;;777459;178;918408;-68
2023/11/12 00:14:33;;;;;;;2.40;1.40;;;;;;;;;;775501;178;915359;-69
2023/11/12 00:16:58;;;;;;;2.67;1.50;;;;;;;;;;779965;178;932344;-68
2023/11/12 00:19:24;;;;;;;2.20;1.20;;;;;;;;;;780503;179;919984;-68
2023/11/12 00:21:50;;;;;;;2.95;1.27;;;;;;;;;;776099;179;919258;-67
2023/11/12 00:24:17;;;;;;;5.43;1.53;;;;;;;;;;773750;179;916791;-68
2023/11/12 00:26:42;;;;;;;2.50;1.20;;;;;;;;;;771188;180;918000;-67
2023/11/12 00:29:08;;;;;;;3.10;1.08;;;;;;;;;;772921;179;918672;-67
2023/11/12 00:31:33;;;;;;;2.10;0.90;;;;;;;;;;775797;179;919252;-66
2023/11/12 00:33:59;;;;;;;3.00;1.27;;;;;;;;;;778022;179;918701;-68
2023/11/12 00:36:25;;;;;;;1.90;0.80;;;;;;;;;;778520;179;918957;-68
2023/11/12 00:38:51;;;;;;;2.63;1.30;;;;;;;;;;771035;177;916275;-68
2023/11/12 00:41:17;;;;;;;2.93;1.00;;;;;;;;;;777478;179;918505;-68
2023/11/12 00:43:43;;;;;;;2.33;1.10;;;;;;;;;;781335;179;919237;-66
2023/11/12 00:46:08;;;;;;;2.00;0.90;;;;;;;;;;777183;180;917073;-66
2023/11/12 00:48:34;;;;;;;1.83;0.83;;;;;;;;;;780468;179;817418;-68
2023/11/12 00:51:00;;;;;;;2.10;1.00;;;;;;;;;;774980;178;918397;-67
2023/11/12 00:53:27;;;;;;;2.10;1.00;;;;;;;;;;774861;177;921590;-68
2023/11/12 00:55:52;;;;;;;2.50;1.20;;;;;;;;;;779933;178;920597;-68
2023/11/12 00:58:18;;;;;;;3.93;1.13;;;;;;;;;;778383;179;918737;-67
2023/11/12 01:00:44;;;;;;;1.90;0.90;;;;;;;;;;776468;179;922225;-66
2023/11/12 01:03:09;;;;;;;2.00;0.90;;;;;;;;;;765319;179;920280;-67
2023/11/12 01:05:35;;;;;;;2.40;1.20;;;;;;;;;;774532;180;917537;-65
2023/11/12 01:08:01;;;;;;;2.40;1.20;;;;;;;;;;772347;177;919315;-68
2023/11/12 01:10:27;;;;;;;2.10;1.10;;;;;;;;;;770529;179;1020546;-68
2023/11/12 01:12:53;;;;;;;2.93;1.20;;;;;;;;;;785587;175;818724;-67
2023/11/12 01:15:19;;;;;;;2.37;1.33;;;;;;;;;;780803;178;836308;-67
2023/11/12 01:17:45;;;;;;;2.40;1.30;;;;;;;;;;779919;175;918104;-66
2023/11/12 01:20:13;;;;;;;2.87;1.20;;;;;;;;;;782629;178;922182;-66
2023/11/12 01:22:38;;;;;;;2.20;1.30;;;;;;;;;;779750;179;917713;-65
2023/11/12 01:25:04;;;;;;;2.50;1.33;;;;;;;;;;776559;178;919418;-67
2023/11/12 01:27:30;;;;;;;3.03;1.35;;;;;;;;;;772241;178;919479;-68
2023/11/12 01:29:56;;;;;;;2.00;1.10;;;;;;;;;;783349;179;918897;-67
2023/11/12 01:32:22;;;;;;;2.30;1.23;;;;;;;;;;775645;177;948365;-67
2023/11/12 01:34:47;;;;;;;2.23;1.20;;;;;;;;;;774868;179;919695;-67
2023/11/12 01:37:13;;;;;;;2.63;1.20;;;;;;;;;;785137;179;919574;-67
2023/11/12 01:39:39;;;;;;;2.93;1.63;;;;;;;;;;777821;179;819096;-67
2023/11/12 01:42:11;;;;;;;2.63;1.60;;;;;;;;;;772309;179;919079;-68
2023/11/12 01:44:32;;;;;;;2.40;1.10;;;;;;;;;;775654;179;916620;-67
2023/11/12 01:46:58;;;;;;;2.70;1.60;;;;;;;;;;779262;179;815615;-69
2023/11/12 01:49:24;;;;;;;2.60;1.43;;;;;;;;;;782072;178;921239;-66
2023/11/12 01:51:50;;;;;;;3.03;1.50;;;;;;;;;;769434;179;918865;-67
2023/11/12 01:54:16;;;;;;;2.83;1.50;;;;;;;;;;774518;180;918166;-66
2023/11/12 01:56:42;;;;;;;2.63;1.70;;;;;;;;;;773926;179;923696;-66
2023/11/12 01:59:07;;;;;;;3.90;2.00;;;;;;;;;;777888;175;919455;-68
2023/11/12 02:01:33;;;;;;;3.40;2.00;;;;;;;;;;780019;179;920749;-68
2023/11/12 02:03:59;;;;;;;3.30;2.00;;;;;;;;;;773643;179;918726;-66
2023/11/12 02:06:25;;;;;;;3.08;1.80;;;;;;;;;;777825;179;914342;-66
2023/11/12 02:08:51;;;;;;;3.37;1.80;;;;;;;;;;781533;177;919047;-68
2023/11/12 02:11:17;;;;;;;3.87;2.37;;;;;;;;;;771801;179;817097;-68
2023/11/12 02:13:43;;;;;;;3.83;2.00;;;;;;;;;;772857;179;919953;-66
2023/11/12 02:16:09;;;;;;;3.12;2.33;;;;;;;;;;774459;179;920076;-66
2023/11/12 02:18:35;;;;;;;3.97;2.60;;;;;;;;;;777410;180;918919;-68
2023/11/12 02:21:03;;;;;;;4.57;2.50;;;;;;;;;;771189;180;918764;-66
2023/11/12 02:23:26;;;;;;;3.80;2.70;;;;;;;;;;774299;179;918824;-67
2023/11/12 02:25:52;;;;;;;4.37;2.70;;;;;;;;;;784079;178;815936;-67
2023/11/12 02:28:18;;;;;;;4.20;2.90;;;;;;;;;;774154;178;919335;-68
2023/11/12 02:30:43;;;;;;;5.30;3.60;;;;;;;;;;772865;178;917203;-67
2023/11/12 02:33:09;;;;;;;4.30;2.90;;;;;;;;;;785809;176;917005;-68
2023/11/12 02:35:36;;;;;;;3.87;2.80;;;;;;;;;;781036;178;819474;-67
2023/11/12 02:38:01;;;;;;;4.40;3.33;;;;;;;;;;773289;179;918578;-66
2023/11/12 02:40:27;;;;;;;4.40;3.23;;;;;;;;;;773458;178;918583;-66
2023/11/12 02:42:53;;;;;;;6.80;4.10;;;;;;;;;;771850;179;921904;-67
2023/11/12 02:45:18;;;;;;;8.03;4.47;;;;;;;;;;774803;179;921721;-67
2023/11/12 02:47:44;;;;;;;4.63;3.30;;;;;;;;;;777716;179;919083;-66
2023/11/12 02:50:15;;;;;;;4.83;3.27;;;;;;;;;;777095;179;1021045;-65
2023/11/12 02:52:41;;;;;;;7.17;4.43;;;;;;;;;;782397;179;916350;-67
2023/11/12 02:55:07;;;;;;;5.83;3.70;;;;;;;;;;769939;179;918676;-68
2023/11/12 02:57:32;;;;;;;5.70;3.90;;;;;;;;;;775636;180;714535;-66
2023/11/12 02:59:58;;;;;;;6.43;3.87;;;;;;;;;;777815;179;918754;-67
2023/11/12 03:02:24;;;;;;;5.90;4.30;;;;;;;;;;767863;179;916881;-65
2023/11/12 03:04:50;;;;;;;7.57;3.87;;;;;;;;;;773396;179;917570;-67
2023/11/12 03:07:18;;;;;;;7.37;4.97;;;;;;;;;;780178;179;943948;-66
2023/11/12 03:09:42;;;;;;;7.70;4.50;;;;;;;;;;776054;180;1019388;-68
2023/11/12 03:12:08;;;;;;;6.67;4.90;;;;;;;;;;779022;178;918732;-67
2023/11/12 03:14:33;;;;;;;8.70;4.97;;;;;;;;;;778356;179;918130;-67
2023/11/12 03:16:59;;;;;;;8.00;5.23;;;;;;;;;;773221;180;936307;-67
2023/11/12 03:19:25;;;;;;;8.80;5.10;;;;;;;;;;780708;179;817987;-66
2023/11/12 03:21:52;;;;;;;7.67;4.77;;;;;;;;;;773180;179;918868;-66
2023/11/12 03:24:17;;;;;;;7.97;5.40;;;;;;;;;;773775;179;917810;-68
2023/11/12 03:26:43;;;;;;;7.60;4.90;;;;;;;;;;775141;179;919795;-67
2023/11/12 03:29:08;;;;;;;6.60;4.60;;;;;;;;;;775717;177;920409;-66
2023/11/12 03:31:34;;;;;;;6.43;4.77;;;;;;;;;;772699;180;910492;-65
2023/11/12 03:34:02;;;;;;;6.93;4.33;;;;;;;;;;769196;177;915556;-67
2023/11/12 03:36:26;;;;;;;5.27;3.83;;;;;;;;;;780147;178;918591;-67
2023/11/12 03:38:52;;;;;;;7.40;4.50;;;;;;;;;;779700;178;918061;-67
2023/11/12 03:41:18;;;;;;;5.43;3.70;;;;;;;;;;774521;178;919403;-67
2023/11/12 03:43:43;;;;;;;6.40;4.40;;;;;;;;;;781616;178;918428;-68
2023/11/12 03:46:09;;;;;;;6.60;4.30;;;;;;;;;;785090;178;920116;-68
2023/11/12 03:48:36;;;;;;;6.87;4.17;;;;;;;;;;780783;178;918711;-65
2023/11/12 03:51:01;;;;;;;5.90;3.92;;;;;;;;;;778111;178;919770;-65
2023/11/12 03:53:27;;;;;;;6.50;4.27;;;;;;;;;;783972;179;918293;-66
2023/11/12 03:55:54;;;;;;;5.73;3.90;;;;;;;;;;777267;179;918861;-66
2023/11/12 03:58:19;;;;;;;6.03;4.40;;;;;;;;;;775402;179;919243;-65
2023/11/12 04:00:44;;;;;;;5.67;4.20;;;;;;;;;;771126;179;814598;-66
2023/11/12 04:03:10;;;;;;;5.63;4.17;;;;;;;;;;784608;179;913959;-67
2023/11/12 04:05:36;;;;;;;7.77;4.80;;;;;;;;;;773778;178;916365;-65
2023/11/12 04:08:02;;;;;;;7.13;4.93;;;;;;;;;;778477;179;922354;-65
2023/11/12 04:10:28;;;;;;;7.00;4.70;;;;;;;;;;782461;179;918135;-67
2023/11/12 04:12:53;;;;;;;6.60;5.00;;;;;;;;;;778575;179;919559;-65
2023/11/12 04:15:19;;;;;;;8.40;5.50;;;;;;;;;;772440;180;918080;-65
2023/11/12 04:17:45;;;;;;;6.50;4.70;;;;;;;;;;776874;179;817820;-67
2023/11/12 04:20:11;;;;;;;5.00;4.03;;;;;;;;;;769397;179;918798;-67
2023/11/12 04:22:37;;;;;;;6.20;4.93;;;;;;;;;;780405;179;917716;-68
2023/11/12 04:25:04;;;;;;;6.10;5.17;;;;;;;;;;774776;179;918683;-65
2023/11/12 04:27:29;;;;;;;6.33;4.77;;;;;;;;;;772203;179;819042;-68
2023/11/12 04:29:54;;;;;;;6.83;5.53;;;;;;;;;;776425;179;919119;-67
2023/11/12 04:32:20;;;;;;;8.60;6.00;;;;;;;;;;772623;179;918931;-67
2023/11/12 04:34:46;;;;;;;7.43;5.60;;;;;;;;;;778999;179;919377;-64
2023/11/12 04:37:13;;;;;;;8.13;5.10;;;;;;;;;;770808;179;915879;-68
2023/11/12 04:39:38;;;;;;;10.03;6.17;;;;;;;;;;766709;181;918627;-66
2023/11/12 04:42:04;;;;;;;12.20;6.17;;;;;;;;;;778182;179;919119;-65
2023/11/12 04:44:31;;;;;;;9.02;6.65;;;;;;;;;;776623;179;816709;-65
2023/11/12 04:46:55;;;;;;;9.67;5.80;;;;;;;;;;773230;176;920418;-67
2023/11/12 04:49:22;;;;;;;11.00;7.10;;;;;;;;;;779330;178;920057;-65
2023/11/12 04:51:47;;;;;;;7.30;6.10;;;;;;;;;;769635;178;920843;-66
2023/11/12 04:54:13;;;;;;;8.70;6.03;;;;;;;;;;778388;175;909784;-67
2023/11/12 04:56:45;;;;;;;7.17;5.83;;;;;;;;;;765800;178;911420;-65
2023/11/12 04:59:10;;;;;;;8.67;6.70;;;;;;;;;;777625;179;918353;-65
2023/11/12 05:01:36;;;;;;;10.37;6.67;;;;;;;;;;772244;179;924729;-65
2023/11/12 05:04:02;;;;;;;12.60;6.87;;;;;;;;;;773193;178;915354;-68
2023/11/12 05:06:29;;;;;;;11.00;6.87;;;;;;;;;;777179;180;917660;-67
2023/11/12 05:08:54;;;;;;;11.67;6.50;;;;;;;;;;772102;177;1001740;-67
2023/11/12 05:11:19;;;;;;;8.50;6.93;;;;;;;;;;776988;179;919197;-66
2023/11/12 05:13:45;;;;;;;11.97;7.83;;;;;;;;;;775708;178;915808;-67
2023/11/12 05:16:11;;;;;;;12.20;7.67;;;;;;;;;;772711;180;917065;-66
2023/11/12 05:18:37;;;;;;;10.00;7.20;;;;;;;;;;779891;179;779928;-68
2023/11/12 05:21:03;;;;;;;9.20;6.97;;;;;;;;;;768437;179;923265;-68
2023/11/12 05:23:29;;;;;;;13.90;8.00;;;;;;;;;;778169;178;918016;-67
2023/11/12 05:25:58;;;;;;;11.27;8.57;;;;;;;;;;775429;179;918744;-68
2023/11/12 05:28:21;;;;;;;13.70;8.27;;;;;;;;;;775998;178;919349;-68
2023/11/12 05:30:46;;;;;;;12.03;8.97;;;;;;;;;;783418;179;813730;-68
2023/11/12 05:33:12;;;;;;;13.20;8.00;;;;;;;;;;780410;179;876528;-69
2023/11/12 05:35:38;;;;;;;10.80;8.73;;;;;;;;;;781808;179;916357;-67
2023/11/12 05:38:04;;;;;;;11.30;7.60;;;;;;;;;;780983;179;918969;-65
2023/11/12 05:40:30;;;;;;;11.03;7.80;;;;;;;;;;770912;179;922318;-67
2023/11/12 05:42:56;;;;;;;10.15;7.22;;;;;;;;;;775901;178;918890;-69
2023/11/12 05:45:21;;;;;;;14.67;8.60;;;;;;;;;;778463;179;920119;-67
2023/11/12 05:47:47;;;;;;;9.13;7.40;;;;;;;;;;783250;179;915981;-66
2023/11/12 05:50:14;;;;;;;11.33;7.87;;;;;;;;;;775546;179;918848;-69
2023/11/12 05:52:39;;;;;;;10.47;8.40;;;;;;;;;;775254;179;921838;-66
2023/11/12 05:55:05;;;;;;;12.35;7.65;;;;;;;;;;778485;179;913700;-68
2023/11/12 05:57:31;;;;;;;15.43;9.23;;;;;;;;;;777371;179;922711;-66
2023/11/12 05:59:57;;;;;;;11.73;8.00;;;;;;;;;;771015;178;932953;-68
2023/11/12 06:02:23;;;;;;;12.83;7.70;;;;;;;;;;783370;178;920819;-68
2023/11/12 06:04:49;;;;;;;8.80;7.50;;;;;;;;;;779868;178;918027;-66
2023/11/12 06:07:15;;;;;;;12.73;7.97;;;;;;;;;;777702;177;817465;-66
2023/11/12 06:09:40;;;;;;;11.47;8.23;;;;;;;;;;779821;178;920685;-66
2023/11/12 06:12:07;;;;;;;14.33;7.63;;;;;;;;;;776997;179;914299;-65
2023/11/12 06:14:33;;;;;;;12.03;7.63;;;;;;;;;;774790;178;922203;-66
2023/11/12 06:16:58;;;;;;;12.50;8.00;;;;;;;;;;778816;179;817941;-66
2023/11/12 06:19:24;;;;;;;11.60;8.50;;;;;;;;;;782221;179;815290;-67
2023/11/12 06:21:50;;;;;;;9.10;7.27;;;;;;;;;;776779;179;919205;-65
2023/11/12 06:24:16;;;;;;;12.73;9.17;;;;;;;;;;778351;175;918705;-65
2023/11/12 06:26:42;;;;;;;12.27;8.23;;;;;;;;;;783182;179;917304;-66
2023/11/12 06:29:08;;;;;;;10.63;8.20;;;;;;;;;;776349;179;911722;-66
2023/11/12 06:31:35;;;;;;;9.83;7.23;;;;;;;;;;773789;179;966122;-68
2023/11/12 06:34:00;;;;;;;9.70;6.40;;;;;;;;;;784499;179;919623;-69
2023/11/12 06:36:26;;;;;;;16.93;8.63;;;;;;;;;;772333;179;913049;-66
2023/11/12 06:38:52;;;;;;;12.10;8.60;;;;;;;;;;776201;179;916608;-66
2023/11/12 06:41:17;;;;;;;10.80;7.37;;;;;;;;;;779388;179;816337;-68
2023/11/12 06:43:43;;;;;;;14.40;7.17;;;;;;;;;;781208;179;818023;-66
2023/11/12 06:46:10;;;;;;;10.37;7.87;;;;;;;;;;776015;179;919163;-67
2023/11/12 06:48:35;;;;;;;12.43;9.07;;;;;;;;;;776594;176;924195;-67
2023/11/12 06:51:01;;;;;;;8.20;6.70;;;;;;;;;;779919;179;920854;-69
2023/11/12 06:53:27;;;;;;;12.20;7.60;;;;;;;;;;774003;175;917286;-69
2023/11/12 06:55:52;;;;;;;11.07;7.90;;;;;;;;;;776670;179;908359;-68
2023/11/12 06:58:18;;;;;;;15.93;9.57;;;;;;;;;;783415;179;917824;-68
2023/11/12 07:00:45;;;;;;;11.20;7.63;;;;;;;;;;777956;179;915465;-67
2023/11/12 07:03:10;;;;;;;12.30;8.50;;;;;;;;;;776888;179;865913;-66
2023/11/12 07:05:37;;;;;;;9.80;6.30;;;;;;;;;;774565;179;920277;-68
2023/11/12 07:08:02;;;;;;;9.70;6.97;;;;;;;;;;775744;177;918225;-67
2023/11/12 07:10:28;;;;;;;12.70;7.93;;;;;;;;;;771200;178;920317;-66
2023/11/12 07:12:53;;;;;;;12.03;5.87;;;;;;;;;;781697;177;919205;-66
2023/11/12 07:15:19;;;;;;;10.30;6.37;;;;;;;;;;784120;178;918274;-66
2023/11/12 07:17:46;;;;;;;9.53;6.20;;;;;;;;;;777961;178;919204;-66
2023/11/12 07:20:12;;;;;;;8.03;5.40;;;;;;;;;;778630;178;919408;-66
2023/11/12 07:22:37;;;;;;;7.97;6.57;;;;;;;;;;787612;178;635844;-69
2023/11/12 07:25:03;;;;;;;7.83;5.67;;;;;;;;;;778205;178;918249;-66
2023/11/12 07:27:31;;;;;;;9.03;5.80;;;;;;;;;;778767;178;626829;-66
2023/11/12 07:29:55;;;;;;;8.50;6.47;;;;;;;;;;781448;179;618826;-66
2023/11/12 07:32:21;;;;;;;7.93;6.00;;;;;;;;;;775760;175;817534;-68
2023/11/12 07:34:47;;;;;;;10.20;6.50;;;;;;;;;;784123;178;629214;-66
2023/11/12 07:37:13;;;;;;;9.43;6.10;;;;;;;;;;773357;179;834748;-68
2023/11/12 07:39:40;;;;;;;11.07;6.63;;;;;;;;;;780235;179;818587;-67
2023/11/12 07:42:04;;;;;;;6.33;4.90;;;;;;;;;;780962;178;635194;-69
2023/11/12 07:44:31;;;;;;;7.80;6.20;;;;;;;;;;781409;179;628965;-67
2023/11/12 07:46:56;;;;;;;10.47;6.33;;;;;;;;;;784756;179;728973;-69
2023/11/12 07:49:23;;;;;;;8.70;6.33;;;;;;;;;;775670;179;945916;-70
2023/11/12 07:51:50;;;;;;;12.27;5.40;;;;;;;;;;773542;179;920140;-68
2023/11/12 07:54:14;;;;;;;7.27;4.80;;;;;;;;;;784248;179;819164;-69
2023/11/12 07:56:39;;;;;;;7.87;5.80;;;;;;;;;;778289;179;817520;-67
2023/11/12 07:59:05;;;;;;;7.60;4.90;;;;;;;;;;776984;179;920433;-67
2023/11/12 08:01:31;;;;;;;11.27;5.33;;;;;;;;;;773602;179;916396;-68
2023/11/12 08:03:57;;;;;;;16.60;5.80;;;;;;;;;;776268;180;915121;-66
2023/11/12 08:06:23;;;;;;;10.30;6.63;;;;;;;;;;774923;179;821315;-69
2023/11/12 08:08:49;;;;;;;6.57;4.80;;;;;;;;;;777321;179;630037;-67
2023/11/12 08:11:14;;;;;;;9.20;5.23;;;;;;;;;;783717;179;916799;-67
2023/11/12 08:13:40;;;;;;;8.50;5.00;;;;;;;;;;779828;178;916848;-66
2023/11/12 08:16:08;;;;;;;8.57;5.50;;;;;;;;;;780614;179;631474;-69
2023/11/12 08:18:32;;;;;;;7.10;5.20;;;;;;;;;;777527;179;623021;-67
2023/11/12 08:20:58;;;;;;;8.33;5.30;;;;;;;;;;776934;178;632484;-69
2023/11/12 08:23:24;;;;;;;14.50;5.70;;;;;;;;;;777051;177;627012;-70
2023/11/12 08:25:50;;;;;;;6.93;6.00;;;;;;;;;;784789;178;624241;-69
2023/11/12 08:28:16;;;;;;;9.40;5.87;;;;;;;;;;782623;178;629654;-66
2023/11/12 08:30:41;;;;;;;9.27;5.70;;;;;;;;;;781639;178;616118;-69
2023/11/12 08:33:07;;;;;;;10.73;6.17;;;;;;;;;;781325;178;640821;-66
2023/11/12 08:35:33;;;;;;;7.17;5.47;;;;;;;;;;783288;178;627149;-69
2023/11/12 08:37:59;;;;;;;10.90;6.17;;;;;;;;;;780142;178;644562;-69
2023/11/12 08:40:25;;;;;;;11.03;5.70;;;;;;;;;;780137;179;629061;-69
2023/11/12 08:42:50;;;;;;;11.53;5.20;;;;;;;;;;784775;178;782097;-67
2023/11/12 08:45:17;;;;;;;12.93;8.80;;;;;;;;;;777258;179;917853;-67
2023/11/12 08:47:42;;;;;;;10.90;6.87;;;;;;;;;;774313;176;917793;-68
2023/11/12 08:50:08;;;;;;;6.93;5.17;;;;;;;;;;786047;178;918138;-67
2023/11/12 08:52:34;;;;;;;7.20;5.00;;;;;;;;;;778257;179;918904;-69
2023/11/12 08:55:00;;;;;;;6.77;5.67;;;;;;;;;;781332;179;840849;-68
2023/11/12 08:57:26;;;;;;;12.00;5.97;;;;;;;;;;780995;178;1021549;-68
2023/11/12 08:59:53;;;;;;;7.27;5.60;;;;;;;;;;770706;180;918295;-68
2023/11/12 09:02:17;;;;;;;9.07;5.13;;;;;;;;;;779331;179;816325;-68
2023/11/12 09:04:43;;;;;;;7.23;5.10;;;;;;;;;;775597;179;928750;-69
2023/11/12 09:07:09;;;;;;;8.43;5.80;;;;;;;;;;781118;175;916215;-70
2023/11/12 09:09:35;;;;;;;11.63;5.70;;;;;;;;;;776527;179;868022;-66
2023/11/12 09:12:01;;;;;;;7.33;4.93;;;;;;;;;;776895;179;1122455;-66
2023/11/12 09:14:27;;;;;;;8.17;4.80;;;;;;;;;;782185;179;919153;-68
2023/11/12 09:16:52;;;;;;;6.73;5.10;;;;;;;;;;769637;179;919713;-68
2023/11/12 09:19:18;;;;;;;8.17;5.53;;;;;;;;;;778016;179;914758;-68
2023/11/12 09:21:44;;;;;;;7.93;5.20;;;;;;;;;;778942;180;916507;-68
2023/11/12 09:24:10;;;;;;;7.90;5.70;;;;;;;;;;771611;177;914913;-66
2023/11/12 09:26:36;;;;;;;10.13;4.70;;;;;;;;;;774599;179;918743;-67
2023/11/12 09:29:02;;;;;;;7.03;4.97;;;;;;;;;;773206;179;1020156;-67
2023/11/12 09:31:28;;;;;;;6.73;4.50;;;;;;;;;;775015;178;817698;-66
2023/11/12 09:33:53;;;;;;;6.55;5.00;;;;;;;;;;783552;174;918662;-68
2023/11/12 09:36:19;;;;;;;6.97;4.37;;;;;;;;;;769617;180;919799;-68
2023/11/12 09:38:46;;;;;;;7.80;5.83;;;;;;;;;;784603;178;817306;-66
2023/11/12 09:41:12;;;;;;;8.50;5.37;;;;;;;;;;776472;178;916945;-66
2023/11/12 09:43:37;;;;;;;9.33;5.30;;;;;;;;;;775719;178;936359;-68
2023/11/12 09:46:03;;;;;;;8.53;5.20;;;;;;;;;;785245;178;715405;-68
2023/11/12 09:48:30;;;;;;;6.85;5.25;;;;;;;;;;777040;175;915188;-66
2023/11/12 09:50:55;;;;;;;7.33;5.47;;;;;;;;;;779569;178;712461;-68
2023/11/12 09:53:21;;;;;;;6.97;5.28;;;;;;;;;;774829;175;926560;-66
2023/11/12 09:55:47;;;;;;;9.73;6.50;;;;;;;;;;769862;180;917930;-68
2023/11/12 09:58:13;;;;;;;8.57;6.27;;;;;;;;;;774939;179;816879;-66
2023/11/12 10:00:39;;;;;;;8.02;6.20;;;;;;;;;;774749;179;918082;-66
2023/11/12 10:03:05;;;;;;;9.60;5.93;;;;;;;;;;780159;179;816140;-68
2023/11/12 10:05:32;;;;;;;7.33;6.00;;;;;;;;;;771643;178;901203;-67
2023/11/12 10:07:57;;;;;;;9.90;6.13;;;;;;;;;;778594;178;915495;-66
2023/11/12 10:10:24;;;;;;;7.30;4.80;;;;;;;;;;777151;179;919182;-66
2023/11/12 10:12:49;;;;;;;7.63;5.13;;;;;;;;;;777638;179;917660;-67
2023/11/12 10:15:15;;;;;;;6.47;5.10;;;;;;;;;;775443;179;920726;-66
2023/11/12 10:17:42;;;;;;;17.87;8.07;;;;;;;;;;780427;179;851717;-67
2023/11/12 10:20:11;;;;;;;9.47;5.50;;;;;;;;;;773860;179;876149;-68
2023/11/12 10:22:37;;;;;;;10.80;6.13;;;;;;;;;;778014;178;822049;-68
2023/11/12 10:25:03;;;;;;;7.47;5.33;;;;;;;;;;777904;178;920306;-68
2023/11/12 10:27:28;;;;;;;9.55;5.18;;;;;;;;;;780446;179;919061;-67
2023/11/12 10:29:54;;;;;;;8.33;5.70;;;;;;;;;;777227;179;938661;-68
2023/11/12 10:32:26;;;;;;;8.75;5.30;;;;;;;;;;775147;179;816238;-68
2023/11/12 10:34:53;;;;;;;7.87;5.70;;;;;;;;;;774106;179;919283;-67
2023/11/12 10:37:19;;;;;;;8.57;6.60;;;;;;;;;;770295;180;821167;-67
2023/11/12 10:39:43;;;;;;;9.18;6.22;;;;;;;;;;780047;179;816370;-67
2023/11/12 10:42:22;;;;;;;10.80;6.47;;;;;;;;;;774117;177;919547;-66
2023/11/12 10:44:47;;;;;;;8.73;5.60;;;;;;;;;;776367;178;920636;-67
2023/11/12 10:47:13;;;;;;;7.47;6.07;;;;;;;;;;775315;177;919376;-66
2023/11/12 10:49:40;;;;;;;8.10;4.73;;;;;;;;;;781276;178;918259;-66
2023/11/12 10:52:06;;;;;;;8.63;4.90;;;;;;;;;;780652;177;910329;-66
2023/11/12 10:54:31;;;;;;;6.33;4.40;;;;;;;;;;779342;178;849867;-67
2023/11/12 10:56:56;;;;;;;7.50;4.60;;;;;;;;;;782893;178;798396;-66
2023/11/12 10:59:22;;;;;;;5.60;4.87;;;;;;;;;;774302;178;922415;-67
2023/11/12 11:01:48;;;;;;;6.93;4.47;;;;;;;;;;779384;178;817288;-66
2023/11/12 11:04:15;;;;;;;7.13;5.07;;;;;;;;;;779349;178;881937;-68
2023/11/12 11:06:41;;;;;;;6.40;4.13;;;;;;;;;;775944;179;915433;-68
2023/11/12 11:09:06;;;;;;;7.60;5.00;;;;;;;;;;781819;178;910072;-67
2023/11/12 11:11:32;;;;;;;9.67;5.57;;;;;;;;;;768758;180;820447;-67
2023/11/12 11:13:58;;;;;;;5.90;5.20;;;;;;;;;;777332;178;924380;-67
2023/11/12 11:16:30;;;;;;;5.97;3.87;;;;;;;;;;775874;179;918906;-68
2023/11/12 11:18:55;;;;;;;5.70;3.87;;;;;;;;;;780067;178;816631;-69
2023/11/12 11:21:21;;;;;;;7.20;4.37;;;;;;;;;;771353;179;918840;-68
2023/11/12 11:23:55;;;;;;;6.80;4.57;;;;;;;;;;776419;177;917713;-67
2023/11/12 11:26:33;;;;;;;8.40;4.40;;;;;;;;;;773288;179;919917;-67
2023/11/12 11:29:16;;;;;;;8.30;3.67;;;;;;;;;;775786;175;821331;-68
2023/11/12 11:31:42;;;;;;;7.90;4.30;;;;;;;;;;765783;178;932188;-68
2023/11/12 11:34:08;;;;;;;5.20;3.63;;;;;;;;;;782188;178;817353;-69
2023/11/12 11:36:34;;;;;;;6.07;4.10;;;;;;;;;;774573;179;918766;-68
2023/11/12 11:39:17;;;;;;;5.30;3.73;;;;;;;;;;777289;179;814825;-69
2023/11/12 11:42:03;;;;;;;4.50;3.57;;;;;;;;;;779584;179;788084;-68
2023/11/12 11:44:48;;;;;;;7.70;4.20;;;;;;;;;;774007;179;911596;-68
2023/11/12 11:47:14;;;;;;;6.67;4.47;;;;;;;;;;776101;179;924807;-68
2023/11/12 11:49:39;;;;;;;5.93;4.17;;;;;;;;;;778127;179;828104;-69
2023/11/12 11:52:07;;;;;;;5.80;3.93;;;;;;;;;;778118;179;818165;-68
2023/11/12 11:54:31;;;;;;;8.40;4.77;;;;;;;;;;776034;179;919889;-68
2023/11/12 11:56:56;;;;;;;5.33;4.37;;;;;;;;;;781725;175;919692;-68
2023/11/12 11:59:22;;;;;;;6.93;4.40;;;;;;;;;;782707;178;921907;-69
2023/11/12 12:01:48;;;;;;;6.53;4.20;;;;;;;;;;779388;178;817102;-69
2023/11/12 12:04:14;;;;;;;6.27;4.30;;;;;;;;;;775112;178;919833;-68
2023/11/12 12:06:41;;;;;;;6.18;4.53;;;;;;;;;;779707;178;816201;-68
2023/11/12 12:09:13;;;;;;;7.43;4.73;;;;;;;;;;779750;178;881611;-68
2023/11/12 12:11:33;;;;;;;6.73;4.70;;;;;;;;;;776948;178;920614;-69
2023/11/12 12:13:59;;;;;;;8.43;5.30;;;;;;;;;;780384;178;915558;-68
2023/11/12 12:16:26;;;;;;;6.80;4.83;;;;;;;;;;777756;179;841513;-68
2023/11/12 12:18:51;;;;;;;10.40;5.47;;;;;;;;;;775080;179;914616;-69
2023/11/12 12:21:17;;;;;;;5.93;4.57;;;;;;;;;;775840;178;1125460;-68
2023/11/12 12:23:43;;;;;;;9.10;4.90;;;;;;;;;;780991;178;817616;-70
2023/11/12 12:26:09;;;;;;;6.13;4.80;;;;;;;;;;775082;179;909219;-68
2023/11/12 12:28:35;;;;;;;7.23;4.27;;;;;;;;;;773955;179;914176;-69
2023/11/12 12:31:01;;;;;;;8.27;4.80;;;;;;;;;;782394;179;917955;-70
2023/11/12 12:33:26;;;;;;;5.77;4.73;;;;;;;;;;776717;179;818732;-68
2023/11/12 12:35:57;;;;;;;8.10;4.60;;;;;;;;;;778531;179;876002;-69
2023/11/12 12:38:23;;;;;;;5.57;4.60;;;;;;;;;;775980;179;816894;-69
2023/11/12 12:40:50;;;;;;;8.53;4.43;;;;;;;;;;775028;180;919365;-69
2023/11/12 12:43:15;;;;;;;5.07;3.80;;;;;;;;;;777074;179;816194;-68
2023/11/12 12:45:41;;;;;;;6.60;4.20;;;;;;;;;;773882;179;936054;-68
2023/11/12 12:48:11;;;;;;;5.57;4.37;;;;;;;;;;778630;179;760968;-68
2023/11/12 12:50:36;;;;;;;6.83;4.50;;;;;;;;;;777157;179;635344;-69
2023/11/12 12:53:08;;;;;;;7.10;4.85;;;;;;;;;;776897;178;922096;-69
2023/11/12 12:55:34;;;;;;;6.47;5.10;;;;;;;;;;776881;179;920052;-68
2023/11/12 12:58:00;;;;;;;8.80;3.90;;;;;;;;;;781878;179;814440;-68
2023/11/12 13:00:25;;;;;;;5.27;3.83;;;;;;;;;;775531;178;917530;-68
2023/11/12 13:02:52;;;;;;;5.03;4.07;;;;;;;;;;775724;179;864318;-68
2023/11/12 13:05:19;;;;;;;6.13;4.10;;;;;;;;;;777180;179;921848;-67
2023/11/12 13:07:46;;;;;;;4.87;3.83;;;;;;;;;;777653;175;824696;-66
2023/11/12 13:10:14;;;;;;;4.93;3.93;;;;;;;;;;777812;178;817490;-67
2023/11/12 13:12:37;;;;;;;6.63;4.80;;;;;;;;;;781602;178;918379;-67
2023/11/12 13:15:03;;;;;;;5.70;4.30;;;;;;;;;;774131;178;917121;-67
2023/11/12 13:17:29;;;;;;;5.80;3.90;;;;;;;;;;776443;178;816937;-67
2023/11/12 13:19:55;;;;;;;5.50;4.03;;;;;;;;;;778350;178;916105;-67
2023/11/12 13:22:21;;;;;;;7.03;4.80;;;;;;;;;;782609;178;817510;-67
2023/11/12 13:24:47;;;;;;;8.47;5.77;;;;;;;;;;781404;178;627694;-68
2023/11/12 13:27:13;;;;;;;6.30;5.20;;;;;;;;;;782147;175;675330;-68
2023/11/12 13:29:41;;;;;;;6.30;4.87;;;;;;;;;;782731;179;815038;-69
2023/11/12 13:32:07;;;;;;;6.70;4.83;;;;;;;;;;773392;179;921732;-68
2023/11/12 13:34:30;;;;;;;8.27;5.45;;;;;;;;;;773374;179;919415;-69
2023/11/12 13:36:56;;;;;;;6.10;5.27;;;;;;;;;;783133;178;911659;-68
2023/11/12 13:39:22;;;;;;;9.23;5.03;;;;;;;;;;773681;179;1022441;-69
2023/11/12 13:41:49;;;;;;;6.80;4.27;;;;;;;;;;777285;179;917142;-69
2023/11/12 13:44:15;;;;;;;7.00;5.00;;;;;;;;;;773915;179;825589;-68
2023/11/12 13:46:40;;;;;;;6.80;4.63;;;;;;;;;;772233;180;815401;-68
2023/11/12 13:49:06;;;;;;;9.10;4.83;;;;;;;;;;782248;179;631784;-68
2023/11/12 13:51:34;;;;;;;6.17;3.90;;;;;;;;;;775065;180;817036;-68
2023/11/12 13:53:57;;;;;;;12.60;4.70;;;;;;;;;;779931;179;817007;-68
2023/11/12 13:56:24;;;;;;;5.53;4.97;;;;;;;;;;776203;179;658951;-67
2023/11/12 13:58:50;;;;;;;7.13;4.63;;;;;;;;;;777878;179;917070;-68
2023/11/12 14:01:19;;;;;;;6.47;4.63;;;;;;;;;;780186;179;819610;-69
2023/11/12 14:03:43;;;;;;;8.60;5.73;;;;;;;;;;772684;176;914594;-68
2023/11/12 14:06:09;;;;;;;5.70;4.20;;;;;;;;;;774277;179;897013;-68
2023/11/12 14:08:35;;;;;;;6.40;4.40;;;;;;;;;;780192;179;815016;-68
2023/11/12 14:11:01;;;;;;;8.10;4.87;;;;;;;;;;772639;180;931490;-69
2023/11/12 14:13:27;;;;;;;6.87;4.43;;;;;;;;;;782112;178;818622;-68
2023/11/12 14:15:53;;;;;;;6.20;3.70;;;;;;;;;;773412;179;918317;-69
2023/11/12 14:18:19;;;;;;;6.50;4.10;;;;;;;;;;781745;176;817004;-68
2023/11/12 14:20:45;;;;;;;6.63;4.10;;;;;;;;;;779876;178;819467;-69